This is the latest recevied weather packets stored in our database for station/object W2JBO-5. If no packets are shown the sender has not sent any weather packets the latest 10 day(s).
| Time | Temp. | Humidity | Pressure | Rain* | Wind** | Luminosity | Snow |
|---|---|---|---|---|---|---|---|
| 1777902921 | 21.11° C | 74% | 1017.9 hPa | 0 mm | - | 423 W/m² | - |
| 1777902618 | 21.67° C | 72% | 1017.9 hPa | 0 mm | - | 395 W/m² | - |
| 1777902315 | 21.11° C | 74% | 1018 hPa | 0 mm | - | 369 W/m² | - |
| 1777902013 | 20.56° C | 77% | 1017.9 hPa | 0 mm | - | 332 W/m² | - |
| 1777901711 | 20° C | 77% | 1017.9 hPa | 0 mm | - | 298 W/m² | - |
| 1777901408 | 20.56° C | 76% | 1017.9 hPa | 0 mm | - | 305 W/m² | - |
| 1777901105 | 20.56° C | 76% | 1018 hPa | 0 mm | - | 289 W/m² | - |
| 1777900803 | 19.44° C | 77% | 1018.1 hPa | 0 mm | - | 268 W/m² | - |
| 1777900500 | 19.44° C | 82% | 1018.2 hPa | 0 mm | - | 257 W/m² | - |
| 1777900197 | 18.89° C | 82% | 1018.1 hPa | 0 mm | - | 268 W/m² | - |
| 1777899893 | 18.33° C | 85% | 1018 hPa | 0 mm | - | 267 W/m² | - |
| 1777899590 | 18.89° C | 83% | 1018.1 hPa | 0 mm | - | 347 W/m² | - |
| 1777899287 | 18.33° C | 85% | 1017.9 hPa | 0 mm | - | 370 W/m² | - |
| 1777898985 | 16.67° C | 92% | 1018.2 hPa | 0 mm | - | 101 W/m² | - |
| 1777898682 | 16.11° C | 96% | 1018.1 hPa | 0 mm | - | 81 W/m² | - |
| 1777898379 | 15° C | 99% | 1018.2 hPa | 0 mm | - | 83 W/m² | - |
| 1777898077 | 15° C | 99% | 1018.1 hPa | 0 mm | - | 73 W/m² | - |
| 1777897773 | 13.89° C | 99% | 1018 hPa | 0 mm | - | 58 W/m² | - |
| 1777897469 | 12.78° C | 99% | 1017.8 hPa | 0 mm | - | 51 W/m² | - |
| 1777897165 | 13.33° C | 99% | 1018 hPa | 0 mm | - | 45 W/m² | - |
| 1777896861 | 12.22° C | 99% | 1017.8 hPa | 0 mm | - | 41 W/m² | - |
| 1777896559 | 12.78° C | 99% | 1017.8 hPa | 0 mm | - | 35 W/m² | - |
| 1777896256 | 11.67° C | 99% | 1017.9 hPa | 0 mm | - | 29 W/m² | - |
| 1777895954 | 11.11° C | 99% | 1017.9 hPa | 0 mm | - | 26 W/m² | - |
| 1777895651 | 10.56° C | 99% | 1018 hPa | 0 mm | - | 19 W/m² | - |
* Rain latest hour (hover to see other rain measurements)
** Current wind speed in m/s (hover to see current wind gust speed)